Time;durP1;ratioP1;P1;durP2;ratioP2;P2;SDS_P1;SDS_P2;PMS_P1;PMS_P2;Temp;Humidity;BMP_temperature;BMP_pressure;BME280_temperature;BME280_humidity;BME280_pressure;Samples;Min_cycle;Max_cycle;Signal;HPM_P1;HPM_P2
2024/04/13 00:01:44;;;;;;;11.52;5.28;;;;;;;-144.05;73.54;56931.66;5327270;26;20032;-84
2024/04/13 00:04:10;;;;;;;15.88;5.63;;;12.90;99.90;;;-144.05;73.84;56944.41;5377859;26;20001;-84
2024/04/13 00:06:37;;;;;;;10.43;5.30;;;16.60;99.90;;;-144.05;74.26;56921.06;5374431;26;20030;-81
2024/04/13 00:09:04;;;;;;;11.68;6.05;;;16.70;99.90;;;-144.05;74.51;56955.03;5375029;26;19997;-80
2024/04/13 00:11:31;;;;;;;13.88;5.80;;;;;;;-144.05;74.78;56963.53;5378848;26;19996;-82
2024/04/13 00:13:57;;;;;;;20.10;5.97;;;;;;;-144.05;74.48;56942.28;5379144;26;20050;-81
2024/04/13 00:16:23;;;;;;;14.10;6.70;;;12.50;99.90;;;-144.05;74.42;56944.41;5356413;26;19999;-82
2024/04/13 00:18:49;;;;;;;14.80;5.97;;;16.70;99.90;;;-144.05;75.01;56942.28;5365293;26;20012;-82
2024/04/13 00:21:15;;;;;;;17.23;6.95;;;12.50;99.90;;;-144.05;74.77;56933.78;5377525;26;20001;-83
2024/04/13 00:23:44;;;;;;;13.15;5.70;;;13.40;99.90;;;-144.05;74.73;56929.53;5374984;26;20445;-83
2024/04/13 00:26:11;;;;;;;11.88;6.43;;;;;;;-144.05;74.81;56940.16;5352101;26;19997;-83
2024/04/13 00:28:37;;;;;;;13.93;7.35;;;12.50;99.90;;;-144.05;75.01;56933.78;5339152;26;19997;-81
2024/04/13 00:31:04;;;;;;;16.52;5.93;;;13.00;99.90;;;-144.05;74.79;56925.28;5345314;26;20016;-84
2024/04/13 00:33:30;;;;;;;15.13;6.15;;;13.60;99.90;;;-144.05;74.64;56921.06;5378173;26;19996;-81
2024/04/13 00:35:59;;;;;;;18.02;5.80;;;16.20;99.90;;;-144.05;75.10;56933.78;5368454;26;20008;-82
2024/04/13 00:38:26;;;;;;;12.93;5.45;;;16.00;99.90;;;-144.05;75.18;56916.81;5378505;26;20004;-84
2024/04/13 00:40:53;;;;;;;9.90;5.63;;;16.30;99.90;;;-144.05;75.88;56933.78;5378930;26;19996;-81
2024/04/13 00:43:19;;;;;;;19.73;6.25;;;16.60;99.90;;;-144.05;75.68;56929.53;5378085;26;20015;-82
2024/04/13 00:45:47;;;;;;;12.35;6.35;;;16.40;99.90;;;-144.05;75.95;56942.28;5378279;26;20000;-82
2024/04/13 00:48:24;;;;;;;10.23;5.90;;;13.10;99.90;;;-144.05;76.59;56961.41;5341111;26;20520;-83
2024/04/13 00:51:05;;;;;;;14.05;6.03;;;16.60;99.90;;;-144.05;76.43;56929.53;5381801;26;20008;-81
2024/04/13 00:53:37;;;;;;;16.75;6.55;;;16.80;99.90;;;-144.05;76.65;56944.41;5346747;26;20021;-83
2024/04/13 00:56:07;;;;;;;12.65;5.80;;;15.20;99.90;;;-144.05;76.30;56944.41;5368031;26;20432;-83
2024/04/13 00:58:38;;;;;;;12.25;6.32;;;11.90;99.90;;;-144.05;76.81;56925.28;5341726;26;20054;-82
2024/04/13 01:01:05;;;;;;;14.40;5.68;;;;;;;-144.05;76.80;56925.28;5344654;26;20005;-83
2024/04/13 01:03:35;;;;;;;14.68;7.18;;;12.50;99.90;;;-144.05;77.08;56955.03;5358228;26;20050;-81
2024/04/13 01:06:01;;;;;;;12.10;5.80;;;16.30;99.90;;;-144.05;76.72;56912.56;5340180;26;19997;-81
2024/04/13 01:08:28;;;;;;;11.77;5.47;;;;;;;-144.05;76.99;56927.41;5378134;26;19996;-83
2024/04/13 01:10:57;;;;;;;8.90;6.32;;;13.20;99.90;;;-144.05;77.34;56929.53;5338780;26;20417;-83
2024/04/13 01:13:24;;;;;;;12.38;5.82;;;;;;;-144.05;77.11;56959.28;5379925;26;20416;-85
2024/04/13 01:15:49;;;;;;;13.27;6.07;;;16.20;99.90;;;-144.05;77.44;56929.53;5381037;26;20050;-82
2024/04/13 01:18:15;;;;;;;8.32;5.45;;;12.10;99.90;;;-144.05;77.67;56948.66;5373381;26;20008;-83
2024/04/13 01:20:43;;;;;;;11.55;6.03;;;14.90;99.90;;;-144.05;78.22;56933.78;5387422;26;20012;-83
2024/04/13 01:23:14;;;;;;;9.50;5.35;;;14.80;99.90;;;-144.05;78.10;56916.81;5382272;26;19996;-84
2024/04/13 01:25:41;;;;;;;15.45;5.93;;;15.60;99.90;;;-144.05;78.06;56923.19;5373494;26;20658;-84
2024/04/13 01:28:11;;;;;;;10.38;5.70;;;15.90;99.90;;;-144.05;78.52;56933.78;5382900;26;20077;-86
2024/04/13 01:30:39;;;;;;;15.20;6.53;;;;;;;-144.05;78.32;56923.19;5377882;26;20004;-83
2024/04/13 01:33:05;;;;;;;10.80;4.88;;;11.80;99.90;;;-144.05;78.37;56942.28;5350919;26;20008;-82
2024/04/13 01:35:31;;;;;;;11.40;5.57;;;;;;;-144.05;78.57;56929.53;5398419;26;20004;-83
2024/04/13 01:37:57;;;;;;;10.27;5.68;;;11.70;99.90;;;-144.05;78.89;56950.78;5398438;26;20000;-84
2024/04/13 01:40:23;;;;;;;14.80;5.85;;;12.40;99.90;;;-144.05;78.20;56929.53;5393112;26;20011;-84
2024/04/13 01:42:49;;;;;;;9.63;5.35;;;15.70;99.90;;;-144.05;78.33;56925.28;5374397;26;20004;-81
2024/04/13 01:45:15;;;;;;;10.63;5.45;;;11.60;99.90;;;-144.05;78.56;56927.41;5370871;26;20000;-79
2024/04/13 01:47:41;;;;;;;11.40;6.30;;;12.40;99.90;;;-144.05;78.88;56963.53;5386672;26;20000;-80
2024/04/13 01:50:07;;;;;;;14.50;5.95;;;11.70;99.90;;;-144.05;78.87;56938.03;5373372;26;20027;-83
2024/04/13 01:52:33;;;;;;;13.50;5.90;;;12.10;99.90;;;-144.05;78.58;56940.16;5379069;26;20011;-81
2024/04/13 01:55:02;;;;;;;12.52;5.60;;;11.70;99.90;;;-144.05;78.51;56946.53;5385776;26;20012;-79
2024/04/13 01:57:28;;;;;;;9.63;5.07;;;15.80;99.90;;;-144.05;78.28;56931.66;5349833;26;20010;-81
2024/04/13 01:59:54;;;;;;;11.38;5.40;;;16.20;99.90;;;-144.05;78.27;56940.16;5366495;26;20325;-83
2024/04/13 02:02:19;;;;;;;14.77;5.90;;;12.30;99.90;;;-144.05;78.16;56935.91;5380487;26;20073;-81
2024/04/13 02:04:47;;;;;;;14.48;5.82;;;;;;;-144.05;78.17;56935.91;5380428;26;20077;-81
2024/04/13 02:07:14;;;;;;;10.45;6.00;;;15.50;99.90;;;-144.05;78.14;56933.78;5380410;26;20008;-82
2024/04/13 02:09:40;;;;;;;10.32;5.68;;;12.30;99.90;;;-144.05;78.26;56921.06;5354380;26;20011;-82
2024/04/13 02:12:08;;;;;;;9.38;5.60;;;;;;;-144.05;78.57;56927.41;5379879;26;20450;-82
2024/04/13 02:14:35;;;;;;;10.82;5.88;;;15.80;99.90;;;-144.05;78.85;56925.28;5380417;26;19996;-84
2024/04/13 02:17:02;;;;;;;15.85;5.63;;;;;;;-144.05;78.68;56944.41;5379899;26;20465;-82
2024/04/13 02:19:28;;;;;;;11.45;5.97;;;;;;;-144.05;79.01;56925.28;5380076;26;20077;-81
2024/04/13 02:21:54;;;;;;;12.88;6.07;;;;;;;-144.05;78.53;56925.28;5368519;26;20334;-81
2024/04/13 02:24:20;;;;;;;13.52;5.60;;;16.00;99.90;;;-144.05;78.57;56952.91;5379656;26;20007;-83
2024/04/13 02:26:46;;;;;;;8.60;5.32;;;11.50;99.90;;;-144.05;78.94;56931.66;5346822;26;20001;-80
2024/04/13 02:29:11;;;;;;;10.00;5.38;;;11.80;99.90;;;-144.05;79.10;56955.03;5350257;26;20483;-81
2024/04/13 02:31:37;;;;;;;13.55;5.80;;;11.80;99.90;;;-144.05;78.81;56942.28;5379523;26;20000;-82
2024/04/13 02:34:03;;;;;;;10.93;6.10;;;12.10;99.90;;;-144.05;78.70;56935.91;5361051;26;20099;-82
2024/04/13 02:36:29;;;;;;;12.98;5.47;;;15.70;99.90;;;-144.05;78.72;56938.03;5380052;26;20019;-83
2024/04/13 02:38:55;;;;;;;13.23;5.75;;;11.70;99.90;;;-144.05;79.00;56938.03;5344707;26;20334;-80
2024/04/13 02:41:21;;;;;;;12.23;5.32;;;11.30;99.90;;;-144.05;79.53;56942.28;5371826;26;20468;-84
2024/04/13 02:43:47;;;;;;;10.95;5.22;;;12.10;99.90;;;-144.05;79.46;56948.66;5362125;26;20015;-82
2024/04/13 02:46:13;;;;;;;14.75;5.75;;;;;;;-144.05;79.15;56927.41;5371067;26;20461;-81
2024/04/13 02:48:47;;;;;;;10.57;5.90;;;14.50;99.90;;;-144.05;79.43;56929.53;5344569;26;20011;-82
2024/04/13 02:51:16;;;;;;;10.30;5.50;;;11.50;99.90;;;-144.05;79.25;56910.44;5379657;26;20066;-81
2024/04/13 02:53:44;;;;;;;12.88;5.72;;;11.30;99.90;;;-144.05;79.49;56931.66;5345561;26;20407;-81
2024/04/13 02:56:10;;;;;;;9.18;5.22;;;;;;;-144.05;79.64;56914.69;5379355;26;20008;-82
2024/04/13 02:58:37;;;;;;;13.25;5.65;;;11.40;99.90;;;-144.05;79.54;56942.28;5344250;26;20012;-81
2024/04/13 03:01:04;;;;;;;12.82;5.47;;;15.50;99.90;;;-144.05;79.64;56921.06;5348371;26;20074;-79
2024/04/13 03:03:30;;;;;;;10.63;5.55;;;;;;;-144.05;80.05;56916.81;5342716;26;20016;-82
2024/04/13 03:06:16;;;;;;;12.70;5.43;;;11.90;99.90;;;-144.05;80.01;56935.91;5379590;26;20000;-81
2024/04/13 03:08:42;;;;;;;12.93;6.13;;;11.80;99.90;;;-144.05;80.99;56944.41;5379078;26;20040;-82
2024/04/13 03:11:11;;;;;;;9.57;6.00;;;15.40;99.90;;;-144.05;80.55;56942.28;5379270;26;20332;-82
2024/04/13 03:13:38;;;;;;;8.00;5.30;;;15.70;99.90;;;-144.05;80.93;56938.03;5348407;26;20386;-82
2024/04/13 03:16:10;;;;;;;9.93;5.70;;;11.60;99.90;;;-144.05;80.71;56906.19;5370989;26;20025;-83
2024/04/13 03:18:43;;;;;;;11.90;6.03;;;15.50;99.90;;;-144.05;80.65;56935.91;5348103;26;20050;-82
2024/04/13 03:21:10;;;;;;;14.15;6.20;;;15.50;99.90;;;-144.05;81.49;56976.28;5345693;26;20001;-81
2024/04/13 03:23:40;;;;;;;14.10;5.93;;;11.50;99.90;;;-144.05;81.22;56918.94;5378928;26;20073;-81
2024/04/13 03:26:06;;;;;;;9.55;5.97;;;11.50;99.90;;;-144.05;80.92;56944.41;5377880;26;20000;-83
2024/04/13 03:28:34;;;;;;;12.18;6.03;;;15.20;99.90;;;-144.05;80.81;56921.06;5362423;26;20065;-82
2024/04/13 03:31:01;;;;;;;13.40;5.88;;;;;;;-144.05;81.29;56931.66;5342929;26;20000;-82
2024/04/13 03:33:27;;;;;;;11.48;5.75;;;14.30;99.90;;;-144.05;81.52;56923.19;5378231;26;20370;-81
2024/04/13 03:35:53;;;;;;;10.20;5.10;;;15.60;99.90;;;-144.05;81.46;56952.91;5377542;26;20015;-83
2024/04/13 03:38:20;;;;;;;14.05;5.82;;;12.30;99.90;;;-144.05;81.73;56929.53;5347783;26;19996;-81
2024/04/13 03:40:46;;;;;;;10.93;5.85;;;;;;;-144.05;82.04;56916.81;5345710;26;20001;-81
2024/04/13 03:43:14;;;;;;;13.25;5.57;;;15.40;99.90;;;-144.05;82.40;56955.03;5376717;26;19996;-83
2024/04/13 03:45:41;;;;;;;10.10;6.05;;;14.10;99.90;;;-144.05;82.67;56944.41;5346380;26;20462;-83
2024/04/13 03:48:07;;;;;;;9.70;5.53;;;15.70;99.90;;;-144.05;82.72;56914.69;5378611;26;20138;-82
2024/04/13 03:50:40;;;;;;;9.10;5.43;;;15.50;99.90;;;-144.05;82.70;56931.66;5378089;26;20015;-82
2024/04/13 03:53:05;;;;;;;14.00;5.70;;;11.70;99.90;;;-144.05;82.66;56938.03;5378858;26;20004;-82
2024/04/13 03:55:31;;;;;;;10.60;6.00;;;15.20;99.90;;;-144.05;83.30;56933.78;5362967;26;20087;-83
2024/04/13 03:57:58;;;;;;;12.32;6.20;;;;;;;-144.05;83.55;56916.81;5328448;26;19997;-82
2024/04/13 04:00:24;;;;;;;14.43;6.25;;;;;;;-144.05;83.26;56955.03;5371242;26;20107;-82
2024/04/13 04:02:50;;;;;;;11.05;6.47;;;;;;;-144.05;83.62;56955.03;5378668;26;20008;-84
2024/04/13 04:05:17;;;;;;;11.35;5.95;;;;;;;-144.05;83.59;56895.56;5346975;26;20074;-82
2024/04/13 04:07:43;;;;;;;16.17;6.85;;;10.90;99.90;;;-144.05;83.88;56963.53;5345084;26;20497;-82
2024/04/13 04:10:11;;;;;;;14.32;6.28;;;10.90;99.90;;;-144.05;84.29;56929.53;5379286;26;19996;-82
2024/04/13 04:12:41;;;;;;;17.60;6.93;;;13.80;99.90;;;-144.05;84.21;56944.41;5370186;26;20001;-81
2024/04/13 04:15:07;;;;;;;16.25;8.57;;;10.30;99.90;;;-144.05;83.95;56942.28;5339831;26;20021;-81
2024/04/13 04:17:33;;;;;;;22.98;8.55;;;15.60;99.90;;;-144.05;85.03;56933.78;5378137;26;20074;-82
2024/04/13 04:19:59;;;;;;;19.38;8.90;;;;;;;-144.05;85.39;56927.41;5378357;26;20006;-79
2024/04/13 04:22:28;;;;;;;15.38;7.35;;;;;;;-144.05;85.58;56957.16;5376121;26;20000;-81
2024/04/13 04:24:55;;;;;;;12.85;7.05;;;;;;;-144.05;86.12;56931.66;5341432;26;20001;-83
2024/04/13 04:27:20;;;;;;;14.77;7.97;;;14.90;99.90;;;-144.05;85.57;56952.91;5360732;26;20000;-81
2024/04/13 04:29:47;;;;;;;11.02;6.82;;;;;;;-144.05;85.75;56940.16;5378147;26;20050;-81
2024/04/13 04:32:13;;;;;;;13.40;6.50;;;14.90;99.90;;;-144.05;85.82;56938.03;5377711;26;20309;-81
2024/04/13 04:34:39;;;;;;;12.35;6.60;;;10.40;99.90;;;-144.05;85.75;56948.66;5378195;26;20001;-81
2024/04/13 04:37:04;;;;;;;11.93;6.53;;;15.20;99.90;;;-144.05;85.11;56942.28;5377731;26;19997;-81
2024/04/13 04:39:31;;;;;;;11.68;6.93;;;10.60;99.90;;;-144.05;85.29;56938.03;5341341;26;19997;-80
2024/04/13 04:41:56;;;;;;;16.13;7.32;;;15.40;99.90;;;-144.05;85.23;56955.03;5339493;26;20012;-81
2024/04/13 04:44:22;;;;;;;11.23;6.55;;;11.50;99.90;;;-144.05;85.57;56933.78;5377736;26;20075;-83
2024/04/13 04:46:48;;;;;;;16.00;7.03;;;11.70;99.90;;;-144.05;85.56;56946.53;5380006;26;20005;-81
2024/04/13 04:49:14;;;;;;;13.95;7.32;;;;;;;-144.05;85.12;56942.28;5350014;26;20012;-85
2024/04/13 04:51:40;;;;;;;12.15;7.05;;;;;;;-144.05;85.12;56950.78;5384185;26;20009;-81
2024/04/13 04:54:10;;;;;;;15.70;7.57;;;;;;;-144.05;85.32;56931.66;5365874;26;20085;-81
2024/04/13 04:56:36;;;;;;;16.10;8.52;;;15.80;99.90;;;-144.05;85.37;56938.03;5376781;26;20001;-82
2024/04/13 04:59:02;;;;;;;17.20;8.15;;;11.70;99.90;;;-144.05;85.47;56929.53;5373915;26;20015;-80
2024/04/13 05:01:28;;;;;;;16.08;7.60;;;;;;;-144.05;84.61;56948.66;5382567;26;20015;-83
2024/04/13 05:03:54;;;;;;;13.05;7.53;;;;;;;-144.05;85.10;56946.53;5381023;26;20011;-81
2024/04/13 05:06:20;;;;;;;13.57;7.90;;;10.50;99.90;;;-144.05;84.72;56931.66;5376508;26;20000;-82
2024/04/13 05:08:47;;;;;;;14.93;7.88;;;14.10;99.90;;;-144.05;84.63;56948.66;5379099;26;20452;-81
2024/04/13 05:11:17;;;;;;;12.60;8.13;;;10.80;99.90;;;-144.05;83.94;56925.28;5381077;26;20000;-82
2024/04/13 05:13:42;;;;;;;15.10;7.18;;;11.20;99.90;;;-144.05;84.07;56935.91;5380730;26;20457;-81
2024/04/13 05:16:09;;;;;;;19.15;8.32;;;15.20;99.90;;;-144.05;83.73;56948.66;5381245;26;20000;-83
2024/04/13 05:18:36;;;;;;;13.43;8.00;;;11.30;99.90;;;-144.05;83.58;56931.66;5345362;26;20007;-80
2024/04/13 05:21:04;;;;;;;12.75;6.93;;;12.60;99.90;;;-144.05;83.61;56948.66;5357742;26;19996;-81
2024/04/13 05:23:30;;;;;;;13.23;8.02;;;15.80;99.90;;;-144.05;83.25;56944.41;5394483;26;20043;-82
2024/04/13 05:25:56;;;;;;;13.73;7.65;;;12.10;99.90;;;-144.05;82.69;56940.16;5375987;26;20000;-82
2024/04/13 05:28:23;;;;;;;16.70;8.13;;;;;;;-144.05;82.04;56940.16;5360763;26;20015;-82
2024/04/13 05:31:00;;;;;;;15.73;7.40;;;;;;;-144.05;81.99;56925.28;5377541;26;20001;-82
2024/04/13 05:33:27;;;;;;;12.13;7.40;;;14.50;99.90;;;-144.05;81.41;56921.06;5343576;26;20011;-82
2024/04/13 05:35:56;;;;;;;16.25;8.00;;;15.40;99.90;;;-144.05;80.91;56935.91;5361938;26;20032;-82
2024/04/13 05:38:23;;;;;;;18.15;8.55;;;11.10;99.90;;;-144.05;80.53;56931.66;5373774;26;20581;-81
2024/04/13 05:40:52;;;;;;;17.05;9.68;;;14.70;99.90;;;-144.05;80.14;56940.16;5386668;26;20077;-80
2024/04/13 05:43:19;;;;;;;11.88;6.97;;;;;;;-144.05;80.07;56938.03;5350493;26;20334;-84
2024/04/13 05:45:46;;;;;;;14.80;8.10;;;;;;;-144.05;79.90;56940.16;5383808;26;19996;-83
2024/04/13 05:48:12;;;;;;;18.27;8.43;;;15.70;99.90;;;-144.05;79.35;56938.03;5354722;26;20004;-82
2024/04/13 05:50:38;;;;;;;17.13;8.20;;;15.80;99.90;;;-144.05;78.73;56948.66;5381363;26;20007;-83
2024/04/13 05:53:04;;;;;;;17.50;9.45;;;12.30;99.90;;;-144.05;78.59;56929.53;5367476;26;20055;-83
2024/04/13 05:55:35;;;;;;;19.60;9.15;;;;;;;-144.05;78.39;56946.53;5374433;26;20000;-84
2024/04/13 05:58:02;;;;;;;18.40;7.63;;;12.80;99.90;;;-144.05;78.60;56938.03;5369034;26;20015;-82
2024/04/13 06:00:29;;;;;;;16.20;8.27;;;;;;;-144.05;78.60;56912.56;5355787;26;20525;-81
2024/04/13 06:02:55;;;;;;;20.25;8.25;;;12.10;99.90;;;-144.05;77.55;56933.78;5351754;26;19996;-83
2024/04/13 06:05:21;;;;;;;17.83;9.65;;;;;;;-144.05;77.27;56957.16;5377000;26;20489;-82
2024/04/13 06:07:48;;;;;;;16.42;7.60;;;;;;;-144.05;76.49;56942.28;5376598;26;20415;-81
2024/04/13 06:10:13;;;;;;;10.25;7.22;;;13.10;99.90;;;-144.05;77.02;56914.69;5381246;26;20078;-83
2024/04/13 06:12:39;;;;;;;15.95;7.07;;;16.10;99.90;;;-144.05;76.36;56950.78;5369630;26;20008;-81
2024/04/13 06:15:06;;;;;;;11.07;5.88;;;12.70;99.90;;;-144.05;75.49;56942.28;5382919;26;20011;-79
2024/04/13 06:17:32;;;;;;;17.77;8.55;;;16.60;99.90;;;-144.05;74.69;56938.03;5349641;26;20073;-83
2024/04/13 06:19:58;;;;;;;10.73;6.18;;;;;;;-144.05;74.48;56963.53;5358997;26;20004;-82
2024/04/13 06:22:24;;;;;;;12.00;6.85;;;;;;;-144.05;73.60;56929.53;5374836;26;20015;-81
2024/04/13 06:24:51;;;;;;;16.02;7.15;;;13.10;99.90;;;-144.05;73.10;56938.03;5367765;26;20008;-83
2024/04/13 06:27:18;;;;;;;16.13;7.88;;;16.50;99.90;;;-144.05;72.37;56957.16;5378754;26;19996;-82
2024/04/13 06:29:49;;;;;;;12.70;6.00;;;14.00;99.90;;;-144.05;72.85;56957.16;5348876;26;20026;-81
2024/04/13 06:32:16;;;;;;;11.60;6.70;;;;;;;-144.05;72.38;56921.06;5373474;26;19996;-83
2024/04/13 06:34:43;;;;;;;14.13;6.90;;;17.60;99.90;;;-144.05;71.81;56929.53;5353735;26;20016;-82
2024/04/13 06:37:11;;;;;;;11.60;6.43;;;;;;;-144.05;71.45;56923.19;5345475;26;20455;-82
2024/04/13 06:39:37;;;;;;;14.35;6.03;;;17.20;99.90;;;-144.05;71.30;56959.28;5382047;26;20008;-82
2024/04/13 06:42:05;;;;;;;13.57;6.50;;;17.30;99.90;;;-144.05;70.58;56946.53;5382211;26;20074;-82
2024/04/13 06:44:31;;;;;;;12.85;6.30;;;17.70;99.90;;;-144.05;70.47;56946.53;5353950;26;19995;-83
2024/04/13 06:46:57;;;;;;;13.65;6.60;;;;;;;-144.05;69.75;56929.53;5346587;26;20010;-82
2024/04/13 06:49:24;;;;;;;10.25;5.50;;;14.50;99.90;;;-144.05;68.79;56963.53;5347659;26;20116;-82
2024/04/13 06:51:50;;;;;;;9.75;5.22;;;18.10;99.90;;;-144.05;68.05;56940.16;5381487;26;20015;-83
2024/04/13 06:54:16;;;;;;;13.50;6.25;;;;;;;-144.05;67.59;56959.28;5373443;26;20040;-79
2024/04/13 06:56:42;;;;;;;10.57;5.70;;;15.10;99.90;;;-144.05;67.31;56946.53;5384479;26;20006;-81
2024/04/13 06:59:08;;;;;;;13.75;6.20;;;;;;;-144.05;66.76;56929.53;5382186;26;20001;-80
2024/04/13 07:01:35;;;;;;;17.13;7.72;;;18.50;99.90;;;-144.05;66.72;56931.66;5378108;26;20098;-83
2024/04/13 07:04:02;;;;;;;13.15;6.32;;;18.90;99.90;;;-144.05;65.99;56952.91;5355498;26;20019;-83
2024/04/13 07:06:31;;;;;;;9.82;5.70;;;15.00;99.90;;;-144.05;65.34;56938.03;5374042;26;20005;-81
2024/04/13 07:08:56;;;;;;;10.73;6.00;;;14.30;99.90;;;-144.05;64.94;56946.53;5342399;26;20015;-79
2024/04/13 07:11:23;;;;;;;14.27;6.45;;;;;;;-144.05;65.81;56950.78;5372835;26;19996;-79
2024/04/13 07:13:48;;;;;;;10.45;5.78;;;15.00;99.90;;;-144.05;65.30;56933.78;5378525;26;20001;-80
2024/04/13 07:16:14;;;;;;;14.57;5.85;;;15.50;99.90;;;-144.05;64.66;56944.41;5341944;26;20001;-81
2024/04/13 07:18:40;;;;;;;14.30;6.45;;;15.30;99.90;;;-144.05;64.76;56955.03;5382591;26;20318;-83
2024/04/13 07:21:06;;;;;;;10.75;5.47;;;19.10;99.90;;;-144.05;64.46;56942.28;5361388;26;20011;-79
2024/04/13 07:23:32;;;;;;;9.90;4.45;;;18.70;99.90;;;-144.05;64.19;56925.28;5382328;26;20420;-84
2024/04/13 07:26:00;;;;;;;11.98;5.65;;;15.00;99.90;;;-144.05;64.91;56938.03;5352319;26;20004;-82
2024/04/13 07:28:28;;;;;;;7.90;4.50;;;16.70;99.90;;;-144.05;64.23;56935.91;5359162;26;20011;-84
2024/04/13 07:30:54;;;;;;;9.88;4.65;;;15.50;99.90;;;-144.05;63.27;56931.66;5378746;26;20451;-82
2024/04/13 07:33:21;;;;;;;10.40;4.80;;;;;;;-144.05;62.44;56942.28;5364173;26;20084;-84
2024/04/13 07:35:48;;;;;;;10.57;4.68;;;15.90;99.90;;;-144.05;62.47;56921.06;5377648;26;20542;-85
2024/04/13 07:38:14;;;;;;;10.57;4.32;;;19.60;99.90;;;-144.05;61.80;56976.28;5376434;26;20028;-84
2024/04/13 07:40:41;;;;;;;13.48;5.10;;;19.60;99.90;;;-144.05;60.90;56959.28;5347697;26;20008;-86
2024/04/13 07:43:20;;;;;;;10.43;4.10;;;19.90;99.90;;;-144.05;60.21;56963.53;5378934;26;20008;-85
2024/04/13 07:45:49;;;;;;;10.95;4.80;;;15.80;99.90;;;-144.05;60.23;56955.03;5387162;26;20008;-84
2024/04/13 07:48:16;;;;;;;11.05;3.67;;;;;;;-144.05;60.50;56969.91;5352286;26;20003;-84
2024/04/13 07:50:42;;;;;;;8.23;4.38;;;15.90;99.90;;;-144.05;58.97;56955.03;5351326;26;20036;-83
2024/04/13 07:53:08;;;;;;;8.07;4.03;;;20.10;99.90;;;-144.05;58.73;56959.28;5389774;26;20341;-84
2024/04/13 07:55:34;;;;;;;8.38;4.18;;;20.30;99.90;;;-144.05;58.94;56946.53;5387274;26;20000;-80
2024/04/13 07:58:00;;;;;;;9.27;4.15;;;20.30;99.90;;;-144.05;59.86;56950.78;5374326;26;20004;-82
2024/04/13 08:00:25;;;;;;;7.90;3.83;;;16.90;99.90;;;-144.05;59.32;56944.41;5360085;26;20414;-81
2024/04/13 08:02:52;;;;;;;7.85;4.60;;;;;;;-144.05;60.36;56944.41;5354655;26;20130;-84
2024/04/13 08:05:17;;;;;;;12.32;4.50;;;16.40;99.90;;;-144.05;60.31;56944.41;5370788;26;19996;-82
2024/04/13 08:07:43;;;;;;;8.52;5.15;;;17.10;99.90;;;-144.05;60.37;56961.41;5387406;26;20386;-82
2024/04/13 08:10:09;;;;;;;9.23;4.18;;;16.90;99.90;;;-144.05;59.34;56965.66;5356830;26;20516;-82
2024/04/13 08:12:35;;;;;;;8.02;4.03;;;16.90;99.90;;;-144.05;58.44;56972.03;5381902;26;20004;-82
2024/04/13 08:15:02;;;;;;;7.55;3.60;;;17.80;99.90;;;-144.05;57.91;56961.41;5381470;26;20019;-84
2024/04/13 08:17:29;;;;;;;6.07;3.88;;;18.10;99.90;;;-144.05;56.17;56974.16;5355541;26;20137;-82
2024/04/13 08:19:55;;;;;;;8.23;3.75;;;17.40;99.90;;;-144.05;56.27;56972.03;5356138;26;19995;-82
2024/04/13 08:22:21;;;;;;;7.25;4.22;;;;;;;-144.05;56.21;56965.66;5375936;26;20004;-81
2024/04/13 08:24:48;;;;;;;6.85;4.25;;;21.20;99.90;;;-144.05;55.99;56976.28;5376914;26;20012;-81
2024/04/13 08:27:14;;;;;;;8.32;4.43;;;21.20;99.90;;;-144.05;55.34;56989.00;5347696;26;20001;-83
2024/04/13 08:29:40;;;;;;;7.07;3.50;;;;;;;-144.05;55.52;56980.53;5372276;26;20114;-82
2024/04/13 08:32:06;;;;;;;11.38;4.43;;;17.90;99.90;;;-144.05;54.83;56991.13;5387125;26;19999;-83
2024/04/13 08:34:33;;;;;;;7.28;3.92;;;19.80;99.90;;;-144.05;55.21;56965.66;5380031;26;20012;-82
2024/04/13 08:36:59;;;;;;;9.60;3.88;;;20.90;99.90;;;-144.05;54.35;56982.66;5384194;26;20001;-81
2024/04/13 08:39:25;;;;;;;6.55;3.90;;;17.70;99.90;;;-144.05;54.17;56955.03;5352530;26;20032;-82
2024/04/13 08:42:07;;;;;;;7.72;3.67;;;21.60;99.90;;;-144.05;53.96;56967.78;5368002;26;20015;-82
2024/04/13 08:44:33;;;;;;;7.82;3.38;;;;;;;-144.05;53.64;57001.75;5382032;26;19997;-81
2024/04/13 08:47:01;;;;;;;7.10;3.80;;;18.60;99.90;;;-144.05;53.33;56974.16;5382790;26;20011;-83
2024/04/13 08:49:36;;;;;;;8.70;3.72;;;21.90;99.90;;;-144.05;53.54;56982.66;5350141;26;20001;-83
2024/04/13 08:52:07;;;;;;;6.82;3.85;;;21.10;99.90;;;-144.05;54.72;56976.28;5351449;26;20000;-81
2024/04/13 08:54:33;;;;;;;8.30;4.30;;;;;;;-144.05;55.28;56967.78;5373854;26;20207;-81
2024/04/13 08:57:05;;;;;;;9.00;3.88;;;20.80;99.90;;;-144.05;55.23;56963.53;5383154;26;20015;-83
2024/04/13 08:59:33;;;;;;;9.15;3.70;;;;;;;-144.05;54.65;56986.91;5358298;26;20020;-81
2024/04/13 09:02:04;;;;;;;8.00;3.60;;;20.20;99.90;;;-144.05;53.69;56978.41;5362006;26;19996;-82
2024/04/13 09:04:32;;;;;;;6.85;3.25;;;18.20;99.90;;;-144.05;53.80;56969.91;5382189;26;20016;-81
2024/04/13 09:07:00;;;;;;;7.57;3.42;;;20.20;99.90;;;-144.05;53.98;56989.00;5361494;26;20006;-82
2024/04/13 09:09:26;;;;;;;6.95;3.15;;;22.00;99.90;;;-144.05;54.44;56989.00;5356660;26;20025;-85
2024/04/13 09:11:53;;;;;;;5.55;3.20;;;20.40;99.90;;;-144.05;52.92;56961.41;5356699;26;20009;-83
2024/04/13 09:14:19;;;;;;;6.40;3.35;;;;;;;-144.05;53.04;56997.50;5352192;26;20017;-82
2024/04/13 09:16:45;;;;;;;11.13;3.38;;;18.50;99.90;;;-144.05;53.44;56991.13;5383407;26;20025;-83
2024/04/13 09:19:12;;;;;;;6.38;2.90;;;;;;;-144.05;53.84;56993.25;5382991;26;20004;-83
2024/04/13 09:21:42;;;;;;;7.00;2.90;;;19.10;99.90;;;-144.05;52.38;56995.38;5391177;26;20004;-83
2024/04/13 09:24:09;;;;;;;4.60;2.90;;;22.30;99.90;;;-144.05;53.13;56974.16;5377396;26;20000;-83
2024/04/13 09:26:45;;;;;;;7.30;3.00;;;18.80;99.90;;;-144.05;52.51;56972.03;5404056;26;20036;-82
2024/04/13 09:29:13;;;;;;;4.97;2.75;;;;;;;-144.05;51.99;56976.28;5401399;26;20003;-84
2024/04/13 09:31:40;;;;;;;6.95;3.03;;;19.00;99.90;;;-144.05;51.82;57008.13;5397709;26;20012;-82
2024/04/13 09:34:06;;;;;;;6.78;3.15;;;19.70;99.90;;;-144.05;51.88;57020.88;5344781;26;20004;-83
2024/04/13 09:36:32;;;;;;;7.90;2.92;;;;;;;-144.05;50.15;56999.63;5379040;26;20423;-84
2024/04/13 09:38:58;;;;;;;8.13;2.90;;;23.10;99.90;;;-144.05;51.11;56976.28;5382378;26;20011;-83
2024/04/13 09:41:25;;;;;;;7.18;2.58;;;21.60;99.90;;;-144.05;50.61;56982.66;5382709;26;20305;-84
2024/04/13 09:43:52;;;;;;;11.30;2.88;;;22.30;99.90;;;-144.05;49.68;56997.50;5400528;26;19996;-82
2024/04/13 09:46:19;;;;;;;7.70;2.70;;;21.70;99.90;;;-144.05;50.13;57018.75;5382078;26;20004;-81
2024/04/13 09:48:46;;;;;;;6.38;3.08;;;;;;;-144.05;48.57;57001.75;5382460;26;19996;-83
2024/04/13 09:51:12;;;;;;;6.70;2.58;;;19.10;99.90;;;-144.05;50.07;56993.25;5345563;26;20125;-80
2024/04/13 09:53:38;;;;;;;9.45;3.05;;;22.00;99.90;;;-144.05;49.92;56989.00;5371982;26;20001;-80
2024/04/13 09:56:05;;;;;;;6.80;2.60;;;22.70;99.90;;;-144.05;50.34;57014.50;5353479;26;20245;-80
2024/04/13 09:58:32;;;;;;;6.10;2.47;;;21.40;99.90;;;-144.05;48.67;56999.63;5369434;26;20001;-80
2024/04/13 10:01:04;;;;;;;8.93;2.70;;;23.10;99.90;;;-144.05;48.91;56991.13;5372805;26;20161;-84
2024/04/13 10:03:31;;;;;;;5.82;2.47;;;23.00;99.90;;;-144.05;50.13;56991.13;5345461;26;20005;-80
2024/04/13 10:06:00;;;;;;;10.50;2.70;;;23.00;99.90;;;-144.05;49.39;56993.25;5382701;26;20000;-82
2024/04/13 10:08:31;;;;;;;5.38;2.10;;;19.20;99.90;;;-144.05;49.29;57020.88;5371566;26;19997;-82
2024/04/13 10:11:02;;;;;;;5.53;2.20;;;22.50;99.90;;;-144.05;48.92;57001.75;5335314;26;20000;-82
2024/04/13 10:13:51;;;;;;;10.43;2.33;;;19.30;99.90;;;-144.05;49.85;57003.88;5380548;26;20368;-83
2024/04/13 10:16:17;;;;;;;8.10;2.30;;;21.10;99.90;;;-144.05;48.83;56972.03;5340667;26;20033;-80
2024/04/13 10:18:44;;;;;;;5.40;2.33;;;23.30;99.90;;;-144.05;49.88;56997.50;5386108;26;20014;-83